Time;durP1;ratioP1;P1;durP2;ratioP2;P2;SDS_P1;SDS_P2;PMS_P1;PMS_P2;Temp;Humidity;BMP_temperature;BMP_pressure;BME280_temperature;BME280_humidity;BME280_pressure;Samples;Min_cycle;Max_cycle;Signal;HPM_P1;HPM_P2
2021/11/16 00:01:00;;;;;;;;;15.50;14.50;;;;;10.89;61.50;101885.81;2104503;27;47149;-63
2021/11/16 00:02:01;;;;;;;;;13.00;12.20;;;;;10.88;61.82;101887.59;2088603;28;46326;-64
2021/11/16 00:03:01;;;;;;;;;23.25;19.75;;;;;10.89;61.56;101878.72;2090416;28;47325;-65
2021/11/16 00:04:04;;;;;;;;;19.75;19.00;;;;;10.90;61.73;101884.94;2086649;28;47324;-65
2021/11/16 00:05:06;;;;;;;;;18.60;15.60;;;;;10.90;62.05;101879.63;2088743;28;47770;-64
2021/11/16 00:06:06;;;;;;;;;13.60;12.40;;;;;10.90;61.57;101887.59;2089108;28;47864;-65
2021/11/16 00:07:07;;;;;;;;;16.50;14.25;;;;;10.90;61.73;101880.50;2096603;27;47192;-66
2021/11/16 00:08:08;;;;;;;;;18.00;15.75;;;;;10.90;61.77;101876.97;2086935;27;46567;-64
2021/11/16 00:09:08;;;;;;;;;14.25;13.00;;;;;10.91;61.63;101878.72;2091167;28;47307;-63
2021/11/16 00:10:09;;;;;;;;;11.33;11.33;;;;;10.91;61.77;101884.03;2089596;28;46008;-64
2021/11/16 00:11:10;;;;;;;;;15.50;15.25;;;;;10.91;61.76;101878.72;2085302;28;47051;-66
2021/11/16 00:12:11;;;;;;;;;19.00;15.60;;;;;10.91;61.73;101876.94;2087080;28;47803;-64
2021/11/16 00:13:11;;;;;;;;;15.00;13.50;;;;;10.92;61.68;101880.47;2090627;28;46111;-65
2021/11/16 00:14:13;;;;;;;;;15.25;14.25;;;;;10.91;61.77;101879.59;2086398;28;46525;-64
2021/11/16 00:15:13;;;;;;;;;13.80;11.80;;;;;10.92;61.47;101875.16;2087118;28;48252;-66
2021/11/16 00:16:14;;;;;;;;;15.00;13.33;;;;;10.93;61.56;101870.78;2085216;28;47396;-65
2021/11/16 00:17:15;;;;;;;;;18.67;15.67;;;;;10.94;61.58;101870.75;2087067;28;48128;-63
2021/11/16 00:18:18;;;;;;;;;13.00;13.00;;;;;10.94;61.50;101864.56;2088587;27;45572;-64
2021/11/16 00:19:18;;;;;;;;;16.50;13.75;;;;;10.94;61.46;101867.22;2090979;28;48131;-63
2021/11/16 00:20:20;;;;;;;;;16.00;14.00;;;;;10.93;61.42;101869.00;2091479;28;47419;-65
2021/11/16 00:21:23;;;;;;;;;17.00;15.25;;;;;10.93;61.45;101862.81;2089553;28;48178;-63
2021/11/16 00:22:24;;;;;;;;;16.75;12.25;;;;;10.94;61.74;101864.56;2091332;28;48539;-63
2021/11/16 00:23:32;;;;;;;;;14.00;14.00;;;;;10.95;61.50;101861.03;2086979;27;48212;-63
2021/11/16 00:24:46;;;;;;;;;14.60;14.20;;;;;10.96;61.27;101861.00;2084988;28;48200;-65
2021/11/16 00:25:54;;;;;;;;;17.40;14.80;;;;;10.97;61.47;101856.59;2089145;27;47101;-65
2021/11/16 00:26:55;;;;;;;;;13.00;12.20;;;;;10.96;61.49;101858.34;2089448;27;45674;-66
2021/11/16 00:27:55;;;;;;;;;16.25;16.00;;;;;10.96;61.39;101863.66;2086587;28;47796;-64
2021/11/16 00:28:56;;;;;;;;;16.33;15.00;;;;;10.97;61.37;101865.44;2088917;28;45155;-63
2021/11/16 00:29:57;;;;;;;;;18.50;15.25;;;;;10.97;61.50;101859.25;2088864;28;47575;-63
2021/11/16 00:30:58;;;;;;;;;14.50;14.50;;;;;10.96;61.60;101858.34;2078013;28;46992;-63
2021/11/16 00:31:58;;;;;;;;;17.20;14.80;;;;;10.96;61.53;101852.16;2087132;28;47613;-64
2021/11/16 00:32:59;;;;;;;;;12.75;11.75;;;;;10.95;61.55;101848.63;2086475;28;46893;-63
2021/11/16 00:34:01;;;;;;;;;16.33;11.00;;;;;10.96;61.72;101847.72;2088704;28;47609;-62
2021/11/16 00:35:03;;;;;;;;;16.40;14.40;;;;;10.96;61.63;101845.06;2089155;28;47180;-63
2021/11/16 00:36:03;;;;;;;;;14.60;9.20;;;;;10.97;61.31;101844.19;2087205;28;48161;-63
2021/11/16 00:37:04;;;;;;;;;17.50;16.25;;;;;10.97;61.39;101845.97;2102259;27;46992;-63
2021/11/16 00:38:08;;;;;;;;;15.75;14.25;;;;;10.97;61.43;101845.97;2100259;27;47213;-65
2021/11/16 00:39:10;;;;;;;;;22.40;16.40;;;;;10.96;61.69;101844.19;2091305;28;47233;-64
2021/11/16 00:40:19;;;;;;;;;20.20;16.40;;;;;10.95;61.69;101840.66;2086908;28;47230;-65
2021/11/16 00:41:19;;;;;;;;;16.60;16.20;;;;;10.97;61.69;101840.66;2100128;27;47798;-64
2021/11/16 00:42:20;;;;;;;;;14.75;13.00;;;;;10.96;61.76;101838.88;2107486;27;47323;-65
2021/11/16 00:43:20;;;;;;;;;18.75;15.75;;;;;10.96;61.46;101836.22;2089069;28;45603;-64
2021/11/16 00:44:21;;;;;;;;;14.00;14.00;;;;;10.96;61.60;101839.75;2089868;28;45498;-65
2021/11/16 00:45:21;;;;;;;;;14.67;13.67;;;;;10.96;61.54;101831.78;2091665;28;47231;-65
2021/11/16 00:46:22;;;;;;;;;13.50;11.25;;;;;10.97;61.59;101833.56;2088168;27;47923;-64
2021/11/16 00:47:23;;;;;;;;;17.50;15.00;;;;;10.97;61.65;101830.03;2083898;28;48181;-66
2021/11/16 00:48:25;;;;;;;;;19.00;17.40;;;;;10.97;61.63;101828.25;2091349;28;47156;-65
2021/11/16 00:49:26;;;;;;;;;15.40;14.60;;;;;10.97;61.60;101827.38;2083163;28;47985;-65
2021/11/16 00:50:26;;;;;;;;;15.75;15.25;;;;;10.96;61.60;101823.81;2083920;28;46884;-65
2021/11/16 00:51:28;;;;;;;;;16.33;15.33;;;;;10.96;61.37;101823.81;2083259;28;47066;-64
2021/11/16 00:52:29;;;;;;;;;17.40;16.40;;;;;10.96;61.57;101829.13;2091693;28;47326;-65
2021/11/16 00:53:33;;;;;;;;;16.40;15.40;;;;;10.95;61.77;101827.38;2099950;27;47343;-64
2021/11/16 00:54:33;;;;;;;;;20.60;18.80;;;;;10.96;61.43;101826.47;2091651;28;47141;-64
2021/11/16 00:55:34;;;;;;;;;19.75;17.25;;;;;10.96;61.93;101826.47;2091574;28;47085;-65
2021/11/16 00:56:35;;;;;;;;;11.50;11.50;;;;;10.97;61.46;101827.38;2092530;28;48353;-66
2021/11/16 00:57:38;;;;;;;;;17.75;16.00;;;;;10.97;61.67;101822.94;2092539;27;47190;-65
2021/11/16 00:58:39;;;;;;;;;13.25;11.25;;;;;10.97;61.61;101825.59;2094166;28;46186;-65
2021/11/16 00:59:40;;;;;;;;;12.75;8.00;;;;;10.98;61.75;101826.47;2090425;28;47892;-65
2021/11/16 01:00:42;;;;;;;;;17.25;13.00;;;;;10.97;61.68;101817.63;2085507;28;46194;-65
2021/11/16 01:01:44;;;;;;;;;15.00;13.00;;;;;10.98;61.58;101818.50;2080751;28;45466;-64
2021/11/16 01:02:45;;;;;;;;;17.80;15.60;;;;;10.98;61.64;101815.84;2088705;28;47289;-65
2021/11/16 01:03:46;;;;;;;;;19.00;15.00;;;;;10.98;61.59;101813.19;2087495;28;45210;-65
2021/11/16 01:04:51;;;;;;;;;16.67;12.00;;;;;10.98;61.57;101806.09;2086226;27;47397;-65
2021/11/16 01:05:53;;;;;;;;;15.50;15.50;;;;;10.98;61.59;101816.72;2089364;28;48458;-64
2021/11/16 01:06:55;;;;;;;;;15.75;14.25;;;;;10.98;61.67;101821.16;2088267;28;48401;-65
2021/11/16 01:07:56;;;;;;;;;14.25;11.75;;;;;10.97;61.52;101809.66;2087297;27;47522;-64
2021/11/16 01:08:57;;;;;;;;;13.00;11.33;;;;;10.97;61.62;101819.41;2093753;28;45031;-67
2021/11/16 01:09:59;;;;;;;;;15.80;14.20;;;;;10.97;61.56;101812.31;2090859;28;48041;-65
2021/11/16 01:11:00;;;;;;;;;13.25;10.75;;;;;10.97;61.82;101814.09;2086906;28;48496;-65
2021/11/16 01:12:00;;;;;;;;;14.67;13.67;;;;;10.96;61.60;101810.53;2088250;28;45353;-65
2021/11/16 01:13:01;;;;;;;;;17.75;16.75;;;;;10.96;61.57;101801.69;2099562;27;46590;-65
2021/11/16 01:14:02;;;;;;;;;14.00;12.67;;;;;10.94;61.66;101815.00;2099440;27;45800;-64
2021/11/16 01:15:05;;;;;;;;;17.50;15.25;;;;;10.95;62.02;101811.44;2088568;28;47855;-65
2021/11/16 01:16:05;;;;;;;;;13.50;10.50;;;;;10.95;61.73;101818.53;2082919;28;45496;-65
2021/11/16 01:17:06;;;;;;;;;17.25;15.75;;;;;10.94;61.79;101815.00;2086444;28;48243;-64
2021/11/16 01:18:08;;;;;;;;;16.25;15.50;;;;;10.94;61.76;101812.34;2088609;28;48275;-65
2021/11/16 01:19:10;;;;;;;;;15.40;14.20;;;;;10.96;61.83;101809.66;2088754;28;48111;-65
2021/11/16 01:20:12;;;;;;;;;18.75;14.50;;;;;10.94;61.97;101812.34;2086292;27;47561;-65
2021/11/16 01:21:13;;;;;;;;;19.60;16.40;;;;;10.95;62.05;101816.75;2091019;27;47986;-65
2021/11/16 01:22:15;;;;;;;;;14.50;13.50;;;;;10.93;62.08;101802.59;2091173;28;47260;-65
2021/11/16 01:23:18;;;;;;;;;19.00;15.00;;;;;10.93;62.07;101802.59;2089000;27;48756;-64
2021/11/16 01:24:19;;;;;;;;;17.80;14.20;;;;;10.93;62.37;101804.38;2086630;28;47217;-65
2021/11/16 01:25:21;;;;;;;;;17.80;16.20;;;;;10.93;62.01;101804.38;2089840;28;47195;-65
2021/11/16 01:26:21;;;;;;;;;18.00;16.60;;;;;10.93;62.15;101801.72;2089345;28;47327;-65
2021/11/16 01:27:22;;;;;;;;;25.50;19.00;;;;;10.91;62.08;101807.00;2086314;28;45534;-65
2021/11/16 01:28:26;;;;;;;;;18.25;17.75;;;;;10.91;62.35;101802.59;2105383;27;47080;-65
2021/11/16 01:29:27;;;;;;;;;17.00;17.00;;;;;10.91;61.99;101809.66;2098869;28;46856;-65
2021/11/16 01:30:30;;;;;;;;;16.00;16.00;;;;;10.89;62.40;101804.38;2091258;28;48224;-64
2021/11/16 01:31:31;;;;;;;;;18.20;16.40;;;;;10.88;62.28;101807.91;2084513;28;47743;-65
2021/11/16 01:32:39;;;;;;;;;17.40;15.60;;;;;10.88;62.45;101807.03;2091809;28;48197;-64
2021/11/16 01:33:49;;;;;;;;;15.00;11.00;;;;;10.87;62.33;101806.16;2092229;27;47719;-64
2021/11/16 01:34:49;;;;;;;;;19.00;17.00;;;;;10.87;62.67;101810.59;2091723;27;46885;-65
2021/11/16 01:35:50;;;;;;;;;15.25;13.50;;;;;10.86;62.84;101806.16;2092326;27;47447;-64
2021/11/16 01:36:50;;;;;;;;;18.33;17.00;;;;;10.87;62.59;101813.25;2091109;28;46671;-64
2021/11/16 01:37:51;;;;;;;;;16.75;16.25;;;;;10.86;62.66;101806.16;2091497;28;48273;-64
2021/11/16 01:38:55;;;;;;;;;19.50;18.25;;;;;10.86;62.59;101814.13;2100020;28;48197;-64
2021/11/16 01:39:56;;;;;;;;;19.40;16.40;;;;;10.85;62.62;101809.72;2091581;28;48327;-64
2021/11/16 01:40:57;;;;;;;;;17.50;16.75;;;;;10.84;62.67;101806.19;2091932;28;47357;-64
2021/11/16 01:41:57;;;;;;;;;17.00;16.67;;;;;10.84;62.75;101803.53;2091976;28;48438;-66
2021/11/16 01:42:59;;;;;;;;;20.00;16.75;;;;;10.85;62.85;101821.22;2091874;28;47301;-65
2021/11/16 01:44:01;;;;;;;;;18.20;17.20;;;;;10.85;62.77;101813.25;2088963;28;47349;-66
2021/11/16 01:45:04;;;;;;;;;19.00;16.50;;;;;10.85;62.69;101815.03;2094208;28;48038;-65
2021/11/16 01:46:14;;;;;;;;;18.60;17.00;;;;;10.85;62.51;101818.56;2094457;28;47120;-65
2021/11/16 01:47:14;;;;;;;;;20.80;18.20;;;;;10.85;62.54;101813.25;2083105;28;46707;-65
2021/11/16 01:48:15;;;;;;;;;16.50;16.25;;;;;10.84;62.91;101811.50;2083786;28;47255;-66
2021/11/16 01:49:15;;;;;;;;;17.50;14.50;;;;;10.85;62.64;101815.03;2091199;28;45354;-65
2021/11/16 01:50:19;;;;;;;;;17.50;15.00;;;;;10.84;62.90;101816.81;2091345;28;48494;-66
2021/11/16 01:51:23;;;;;;;;;15.00;13.75;;;;;10.85;62.91;101817.69;2083647;28;47771;-66
2021/11/16 01:52:24;;;;;;;;;22.80;18.40;;;;;10.84;62.75;101822.13;2083785;28;48112;-65
2021/11/16 01:53:25;;;;;;;;;15.50;15.00;;;;;10.83;62.67;101819.47;2083597;28;47143;-65
2021/11/16 01:54:25;;;;;;;;;15.00;15.00;;;;;10.83;62.56;101822.13;2085589;28;45409;-66
2021/11/16 01:55:26;;;;;;;;;15.50;12.75;;;;;10.83;62.78;101816.81;2083935;28;46917;-65
2021/11/16 01:56:27;;;;;;;;;19.00;16.00;;;;;10.84;62.93;101815.94;2086414;28;48031;-65
2021/11/16 01:57:28;;;;;;;;;17.20;16.40;;;;;10.84;62.99;101822.13;2084416;28;47935;-66
2021/11/16 01:58:28;;;;;;;;;20.00;18.00;;;;;10.85;62.84;101818.56;2104563;27;47593;-65
2021/11/16 01:59:29;;;;;;;;;17.50;16.50;;;;;10.85;62.95;101817.69;2093623;28;48116;-66
2021/11/16 02:00:33;;;;;;;;;16.25;14.25;;;;;10.86;62.95;101822.09;2087896;28;48202;-65
2021/11/16 02:01:35;;;;;;;;;18.25;11.50;;;;;10.85;62.73;101823.88;2083686;28;47481;-66
2021/11/16 02:02:36;;;;;;;;;17.80;17.40;;;;;10.84;62.73;101823.88;2086405;28;47279;-65
2021/11/16 02:03:37;;;;;;;;;16.50;15.75;;;;;10.85;62.95;101809.72;2090070;28;48240;-66
2021/11/16 02:04:38;;;;;;;;;21.50;16.50;;;;;10.85;62.99;101809.72;2095239;28;47178;-66
2021/11/16 02:05:40;;;;;;;;;17.75;15.75;;;;;10.85;63.00;101813.25;2091997;28;47369;-65
2021/11/16 02:06:42;;;;;;;;;16.40;15.00;;;;;10.86;62.98;101803.50;2098702;27;47347;-65
2021/11/16 02:07:45;;;;;;;;;20.80;17.60;;;;;10.85;63.21;101813.25;2089512;27;47239;-66
2021/11/16 02:08:48;;;;;;;;;23.40;17.20;;;;;10.87;63.20;101805.28;2098281;28;48261;-66
2021/11/16 02:09:48;;;;;;;;;19.40;18.00;;;;;10.86;63.13;101807.06;2099568;28;47540;-67
2021/11/16 02:10:52;;;;;;;;;19.00;17.00;;;;;10.86;63.38;101807.06;2095884;27;46999;-66
2021/11/16 02:11:53;;;;;;;;;18.40;17.20;;;;;10.85;63.11;101802.63;2083795;28;47521;-66
2021/11/16 02:12:54;;;;;;;;;17.40;17.40;;;;;10.87;63.13;101807.94;2096020;28;47446;-66
2021/11/16 02:13:54;;;;;;;;;17.00;14.67;;;;;10.87;63.23;101807.94;2098018;27;48134;-65
2021/11/16 02:14:55;;;;;;;;;15.75;15.75;;;;;10.87;63.48;101811.47;2099423;28;46039;-66
2021/11/16 02:15:56;;;;;;;;;17.25;14.75;;;;;10.87;63.39;101802.63;2088924;28;47560;-66
2021/11/16 02:16:56;;;;;;;;;14.33;13.33;;;;;10.87;63.30;101808.81;2097569;28;47101;-66
2021/11/16 02:17:57;;;;;;;;;20.50;17.75;;;;;10.86;63.31;101800.84;2095374;28;47480;-66
2021/11/16 02:18:59;;;;;;;;;15.40;15.40;;;;;10.86;63.24;101801.75;2094539;28;47169;-66
2021/11/16 02:20:00;;;;;;;;;20.50;17.75;;;;;10.86;63.48;101801.75;2091096;28;47668;-66
2021/11/16 02:21:01;;;;;;;;;19.00;17.00;;;;;10.87;63.34;101797.31;2088826;28;46919;-66
2021/11/16 02:22:02;;;;;;;;;17.50;15.75;;;;;10.86;63.13;101799.09;2092836;27;47284;-66
2021/11/16 02:23:06;;;;;;;;;17.40;14.80;;;;;10.87;63.50;101805.28;2099954;27;47346;-66
2021/11/16 02:24:07;;;;;;;;;22.60;18.80;;;;;10.87;63.43;101806.16;2098057;27;47041;-64
2021/11/16 02:25:08;;;;;;;;;20.20;17.40;;;;;10.88;63.47;101796.41;2096437;27;45252;-66
2021/11/16 02:26:12;;;;;;;;;15.40;14.20;;;;;10.87;63.46;101792.88;2087044;28;47062;-66
2021/11/16 02:27:12;;;;;;;;;21.00;17.60;;;;;10.88;63.38;101799.94;2074629;28;47954;-66
2021/11/16 02:28:15;;;;;;;;;17.75;17.00;;;;;10.88;63.44;101797.28;2090946;28;46326;-66
2021/11/16 02:29:16;;;;;;;;;19.80;17.00;;;;;10.87;63.73;101797.31;2090808;28;48167;-66
2021/11/16 02:30:20;;;;;;;;;16.80;16.80;;;;;10.85;63.48;101797.31;2091314;28;47195;-66
2021/11/16 02:31:21;;;;;;;;;22.00;17.80;;;;;10.85;63.46;101799.09;2091246;28;48428;-66
2021/11/16 02:32:21;;;;;;;;;16.67;14.67;;;;;10.85;63.55;101791.13;2099523;28;45513;-66
2021/11/16 02:33:22;;;;;;;;;19.50;18.00;;;;;10.83;63.46;101793.81;2099249;28;47304;-65
2021/11/16 02:34:24;;;;;;;;;23.25;17.75;;;;;10.83;63.18;101796.44;2092140;28;48286;-66
2021/11/16 02:35:25;;;;;;;;;21.60;17.60;;;;;10.83;63.68;101796.44;2091621;27;47391;-66
2021/11/16 02:36:29;;;;;;;;;17.20;14.60;;;;;10.84;63.60;101797.34;2092048;27;47240;-65
2021/11/16 02:37:31;;;;;;;;;19.00;16.40;;;;;10.84;63.29;101797.34;2099262;28;47856;-66
2021/11/16 02:38:33;;;;;;;;;15.00;14.00;;;;;10.83;63.44;101800.88;2098620;27;46965;-66
2021/11/16 02:39:34;;;;;;;;;21.20;14.80;;;;;10.82;63.47;101800.00;2090550;28;48576;-66
2021/11/16 02:40:34;;;;;;;;;15.25;14.75;;;;;10.83;63.64;101795.56;2092399;28;45396;-67
2021/11/16 02:41:37;;;;;;;;;17.67;15.33;;;;;10.82;63.55;101800.00;2091849;28;47247;-66
2021/11/16 02:42:38;;;;;;;;;14.00;14.00;;;;;10.83;63.71;101803.53;2091319;28;48033;-66
2021/11/16 02:43:41;;;;;;;;;18.25;14.25;;;;;10.83;63.71;101800.88;2091753;27;46981;-66
2021/11/16 02:44:42;;;;;;;;;19.60;17.20;;;;;10.82;63.66;101799.13;2083354;28;45393;-66
2021/11/16 02:45:43;;;;;;;;;21.00;18.00;;;;;10.82;63.62;101802.66;2080826;28;47073;-66
2021/11/16 02:46:48;;;;;;;;;18.00;16.00;;;;;10.81;63.64;101790.28;2081181;28;47083;-66
2021/11/16 02:47:50;;;;;;;;;17.40;12.40;;;;;10.81;63.57;101795.59;2097199;28;48012;-66
2021/11/16 02:48:50;;;;;;;;;19.80;17.20;;;;;10.83;63.55;101803.53;2083163;28;47657;-65
2021/11/16 02:49:54;;;;;;;;;16.75;15.00;;;;;10.83;63.82;101801.75;2084082;28;46230;-65
2021/11/16 02:50:56;;;;;;;;;19.00;16.40;;;;;10.83;63.66;101793.81;2083333;28;47298;-66
2021/11/16 02:51:57;;;;;;;;;15.40;13.80;;;;;10.84;63.61;101798.22;2083732;28;47220;-65
2021/11/16 02:52:57;;;;;;;;;16.75;14.75;;;;;10.84;63.48;101794.69;2083170;28;46732;-65
2021/11/16 02:53:58;;;;;;;;;17.00;15.75;;;;;10.83;63.47;101788.50;2083832;28;48239;-66
2021/11/16 02:54:58;;;;;;;;;20.00;17.75;;;;;10.83;63.72;101792.91;2099213;27;45393;-65
2021/11/16 02:55:59;;;;;;;;;19.50;18.25;;;;;10.82;63.23;101796.47;2099665;27;47969;-66
2021/11/16 02:57:08;;;;;;;;;18.00;16.00;;;;;10.80;63.38;101796.47;2091122;28;47402;-66
2021/11/16 02:58:10;;;;;;;;;20.00;16.60;;;;;10.80;63.35;101788.50;2091361;28;47950;-66
2021/11/16 02:59:12;;;;;;;;;16.00;15.00;;;;;10.81;63.45;101792.06;2091735;28;47443;-65
2021/11/16 03:00:16;;;;;;;;;18.00;15.60;;;;;10.80;63.41;101784.97;2091940;28;48252;-65
2021/11/16 03:01:19;;;;;;;;;17.00;13.40;;;;;10.81;63.73;101794.72;2091238;28;47325;-66
2021/11/16 03:02:20;;;;;;;;;19.00;16.80;;;;;10.80;63.60;101798.25;2091861;28;47169;-66
2021/11/16 03:03:21;;;;;;;;;13.75;13.75;;;;;10.80;63.59;101788.50;2091327;27;48100;-66
2021/11/16 03:04:22;;;;;;;;;17.25;16.25;;;;;10.81;63.36;101794.72;2103823;27;46736;-65
2021/11/16 03:05:23;;;;;;;;;15.60;14.20;;;;;10.80;63.54;101792.94;2099108;28;48537;-65
2021/11/16 03:06:23;;;;;;;;;13.75;13.75;;;;;10.80;63.48;101792.94;2083461;28;45318;-66
2021/11/16 03:07:32;;;;;;;;;14.00;13.50;;;;;10.79;63.59;101788.50;2083093;28;47099;-65
2021/11/16 03:08:33;;;;;;;;;17.00;16.60;;;;;10.78;63.48;101792.03;2099363;27;45349;-65
2021/11/16 03:09:34;;;;;;;;;18.25;16.50;;;;;10.78;63.54;101786.72;2099236;27;47096;-66
2021/11/16 03:10:34;;;;;;;;;20.25;17.25;;;;;10.77;63.37;101790.28;2084377;28;48475;-65
2021/11/16 03:11:35;;;;;;;;;18.75;15.50;;;;;10.77;63.35;101785.84;2080010;28;48279;-65
2021/11/16 03:12:37;;;;;;;;;16.00;16.00;;;;;10.78;63.52;101784.97;2078431;28;48335;-66
2021/11/16 03:13:40;;;;;;;;;16.80;14.80;;;;;10.78;63.56;101789.38;2097227;28;47494;-66
2021/11/16 03:14:40;;;;;;;;;20.60;17.00;;;;;10.77;63.52;101790.28;2082542;28;46212;-65
2021/11/16 03:15:41;;;;;;;;;19.50;18.25;;;;;10.76;63.45;101785.88;2092624;28;48250;-66
2021/11/16 03:16:41;;;;;;;;;18.25;17.50;;;;;10.75;63.28;101786.75;2106377;27;48331;-65
2021/11/16 03:17:42;;;;;;;;;16.75;16.75;;;;;10.73;63.64;101783.22;2083411;28;47177;-67
2021/11/16 03:18:47;;;;;;;;;21.00;17.75;;;;;10.74;63.58;101787.66;2086792;28;47243;-66
2021/11/16 03:19:47;;;;;;;;;19.20;17.20;;;;;10.74;63.57;101788.53;2091879;28;45315;-66
2021/11/16 03:20:49;;;;;;;;;22.00;18.25;;;;;10.74;63.34;101785.88;2091573;28;48401;-66
2021/11/16 03:21:57;;;;;;;;;17.20;15.20;;;;;10.75;63.41;101792.06;2088149;28;47678;-66
2021/11/16 03:23:06;;;;;;;;;17.20;14.20;;;;;10.73;63.74;101786.75;2091585;28;47393;-66
2021/11/16 03:24:07;;;;;;;;;20.00;17.20;;;;;10.73;63.35;101784.13;2091771;27;48348;-66
2021/11/16 03:25:09;;;;;;;;;19.00;16.00;;;;;10.72;63.71;101790.31;2091420;27;47272;-66
2021/11/16 03:26:12;;;;;;;;;15.00;13.80;;;;;10.72;63.44;101782.34;2098384;27;48160;-66
2021/11/16 03:27:15;;;;;;;;;14.75;13.00;;;;;10.73;63.46;101789.44;2090681;28;47995;-65
2021/11/16 03:28:17;;;;;;;;;15.80;14.60;;;;;10.73;63.61;101796.50;2086996;28;48708;-65
2021/11/16 03:29:23;;;;;;;;;18.80;16.20;;;;;10.73;63.81;101783.22;2091529;28;47446;-66
2021/11/16 03:30:24;;;;;;;;;21.60;18.20;;;;;10.72;63.46;101784.13;2091524;27;45438;-66
2021/11/16 03:31:37;;;;;;;;;17.40;15.80;;;;;10.71;63.58;101780.59;2091403;28;47353;-65
2021/11/16 03:32:38;;;;;;;;;15.80;15.20;;;;;10.72;63.78;101776.16;2091410;28;47774;-65
2021/11/16 03:33:39;;;;;;;;;16.50;15.75;;;;;10.72;63.76;101776.16;2090767;28;47415;-66
2021/11/16 03:34:46;;;;;;;;;17.60;15.20;;;;;10.71;63.33;101783.25;2090272;28;48101;-66
2021/11/16 03:35:48;;;;;;;;;17.80;16.40;;;;;10.72;63.72;101777.03;2090980;28;46946;-66
2021/11/16 03:36:48;;;;;;;;;20.20;17.00;;;;;10.71;63.79;101779.72;2090487;28;47441;-66
2021/11/16 03:37:51;;;;;;;;;18.00;17.25;;;;;10.70;63.76;101781.47;2091434;27;46971;-64
2021/11/16 03:38:54;;;;;;;;;15.40;15.40;;;;;10.72;63.76;101773.50;2091177;28;47271;-65
2021/11/16 03:39:54;;;;;;;;;24.60;17.20;;;;;10.72;63.51;101781.47;2091552;28;46222;-66
2021/11/16 03:40:56;;;;;;;;;16.75;16.75;;;;;10.72;63.77;101778.81;2091227;28;46102;-68
2021/11/16 03:41:57;;;;;;;;;17.40;14.80;;;;;10.71;63.77;101783.25;2091130;28;48049;-67
2021/11/16 03:42:57;;;;;;;;;20.50;19.00;;;;;10.72;63.63;101784.13;2090482;28;47240;-64
2021/11/16 03:43:58;;;;;;;;;17.50;14.50;;;;;10.70;63.76;101775.28;2104935;27;45097;-64
2021/11/16 03:44:59;;;;;;;;;19.60;17.00;;;;;10.71;63.88;101777.06;2090604;28;46021;-65
2021/11/16 03:46:00;;;;;;;;;17.00;15.25;;;;;10.71;63.59;101780.59;2087746;28;47566;-65
2021/11/16 03:47:03;;;;;;;;;17.40;14.80;;;;;10.71;63.77;101777.94;2091075;28;47301;-64
2021/11/16 03:48:04;;;;;;;;;16.60;15.00;;;;;10.71;63.76;101783.25;2091248;27;47427;-66
2021/11/16 03:49:05;;;;;;;;;20.00;17.00;;;;;10.70;63.93;101784.13;2090332;28;45338;-65
2021/11/16 03:50:09;;;;;;;;;17.00;15.75;;;;;10.71;63.72;101785.91;2090801;28;47520;-65
2021/11/16 03:51:10;;;;;;;;;23.20;19.00;;;;;10.70;63.75;101791.22;2090326;28;48561;-65
2021/11/16 03:52:10;;;;;;;;;20.75;19.25;;;;;10.70;63.78;101792.09;2082533;28;46948;-65
2021/11/16 03:53:11;;;;;;;;;20.00;17.50;;;;;10.70;63.60;101786.78;2073782;28;47372;-66
2021/11/16 03:54:12;;;;;;;;;14.40;13.20;;;;;10.71;63.81;101788.56;2087381;28;47417;-66
2021/11/16 03:55:13;;;;;;;;;17.00;16.25;;;;;10.71;63.56;101792.97;2098815;28;47089;-65
2021/11/16 03:56:14;;;;;;;;;15.25;13.25;;;;;10.71;63.72;101785.00;2085360;28;48438;-65
2021/11/16 03:57:14;;;;;;;;;19.00;15.20;;;;;10.70;63.80;101789.44;2091019;28;48374;-65
2021/11/16 03:58:18;;;;;;;;;20.25;17.75;;;;;10.71;63.75;101791.22;2096347;28;47590;-65
2021/11/16 03:59:19;;;;;;;;;15.80;14.40;;;;;10.71;63.58;101793.88;2084445;28;47560;-65
2021/11/16 04:00:27;;;;;;;;;15.25;15.00;;;;;10.73;63.73;101793.84;2096846;28;47572;-65
2021/11/16 04:01:28;;;;;;;;;16.60;15.80;;;;;10.74;63.59;101792.97;2090287;28;47096;-66
2021/11/16 04:02:28;;;;;;;;;13.75;11.75;;;;;10.72;63.21;101790.31;2082855;28;46463;-64
2021/11/16 04:03:33;;;;;;;;;15.00;14.75;;;;;10.72;63.55;101789.44;2093024;28;47404;-65
2021/11/16 04:04:34;;;;;;;;;14.00;13.80;;;;;10.71;63.57;101785.91;2095765;28;48559;-65
2021/11/16 04:05:35;;;;;;;;;13.75;13.25;;;;;10.72;63.47;101786.78;2097447;28;47037;-65
2021/11/16 04:06:36;;;;;;;;;17.80;13.20;;;;;10.72;63.49;101786.78;2098904;28;48608;-65
2021/11/16 04:07:37;;;;;;;;;14.75;14.75;;;;;10.72;63.51;101784.13;2097543;27;48388;-66
2021/11/16 04:08:38;;;;;;;;;16.25;14.50;;;;;10.73;63.29;101788.53;2099042;27;46687;-65
2021/11/16 04:09:38;;;;;;;;;18.40;15.40;;;;;10.72;63.50;101786.78;2096906;27;45404;-65
2021/11/16 04:10:39;;;;;;;;;17.75;14.00;;;;;10.72;63.15;101781.47;2097494;27;45788;-66
2021/11/16 04:11:41;;;;;;;;;22.50;17.75;;;;;10.73;63.40;101786.75;2083425;27;48105;-65
2021/11/16 04:12:45;;;;;;;;;12.00;9.00;;;;;10.74;63.38;101782.34;2095385;28;47065;-65
2021/11/16 04:13:46;;;;;;;;;18.20;16.60;;;;;10.75;63.30;101786.75;2096853;27;48125;-67
2021/11/16 04:14:47;;;;;;;;;14.25;10.75;;;;;10.75;63.16;101786.75;2099615;27;47196;-66
2021/11/16 04:15:49;;;;;;;;;18.00;14.00;;;;;10.74;63.26;101782.34;2097628;27;47332;-65
2021/11/16 04:16:52;;;;;;;;;15.40;14.20;;;;;10.73;63.44;101786.75;2097853;28;46943;-65
2021/11/16 04:17:54;;;;;;;;;18.20;15.00;;;;;10.74;63.49;101779.69;2098213;28;47537;-66
2021/11/16 04:18:54;;;;;;;;;18.00;17.60;;;;;10.74;63.50;101783.22;2097362;27;45441;-66
2021/11/16 04:19:55;;;;;;;;;16.75;16.50;;;;;10.75;63.34;101790.28;2095170;27;46865;-66
2021/11/16 04:20:57;;;;;;;;;17.75;14.25;;;;;10.75;63.51;101786.75;2098720;28;46714;-66
2021/11/16 04:21:58;;;;;;;;;18.80;16.80;;;;;10.74;63.53;101785.00;2085983;28;47444;-66
2021/11/16 04:23:00;;;;;;;;;18.00;17.00;;;;;10.74;63.46;101782.34;2090308;28;48279;-65
2021/11/16 04:24:00;;;;;;;;;14.20;13.00;;;;;10.74;63.53;101787.66;2087464;28;48879;-65
2021/11/16 04:25:02;;;;;;;;;16.75;14.00;;;;;10.72;63.27;101787.66;2084729;28;48068;-66
2021/11/16 04:26:03;;;;;;;;;16.80;13.80;;;;;10.71;63.50;101785.91;2089380;28;47400;-65
2021/11/16 04:27:04;;;;;;;;;19.40;15.40;;;;;10.71;63.35;101785.91;2084669;28;48411;-66
2021/11/16 04:28:10;;;;;;;;;18.60;16.20;;;;;10.71;63.23;101783.25;2089292;28;47421;-65
2021/11/16 04:29:10;;;;;;;;;18.60;16.20;;;;;10.70;63.57;101786.78;2090229;28;46664;-65
2021/11/16 04:30:14;;;;;;;;;19.50;18.00;;;;;10.70;63.42;101783.25;2090860;28;46992;-66
2021/11/16 04:31:14;;;;;;;;;15.60;13.80;;;;;10.70;63.49;101786.78;2097633;27;46826;-66
2021/11/16 04:32:15;;;;;;;;;21.25;16.00;;;;;10.72;63.76;101787.66;2092039;28;47123;-65
2021/11/16 04:33:18;;;;;;;;;21.50;18.00;;;;;10.72;63.54;101787.66;2083412;28;45031;-66
2021/11/16 04:34:19;;;;;;;;;16.80;14.60;;;;;10.72;63.25;101778.81;2084039;28;47649;-65
2021/11/16 04:35:20;;;;;;;;;17.00;16.00;;;;;10.72;63.46;101785.00;2083892;28;46712;-65
2021/11/16 04:36:22;;;;;;;;;17.75;17.75;;;;;10.73;63.50;101786.75;2091286;28;46042;-66
2021/11/16 04:37:23;;;;;;;;;18.00;15.40;;;;;10.74;63.49;101779.69;2092160;27;47355;-65
2021/11/16 04:38:23;;;;;;;;;16.50;15.25;;;;;10.75;63.39;101781.44;2092533;27;45469;-66
2021/11/16 04:39:24;;;;;;;;;22.25;20.00;;;;;10.74;63.44;101783.22;2092220;28;48306;-65
2021/11/16 04:40:32;;;;;;;;;18.25;18.25;;;;;10.76;63.67;101783.22;2092706;28;47100;-65
2021/11/16 04:41:35;;;;;;;;;15.40;15.00;;;;;10.77;63.08;101790.28;2100197;27;48376;-65